Time;durP1;ratioP1;P1;durP2;ratioP2;P2;SDS_P1;SDS_P2;PMS_P1;PMS_P2;Temp;Humidity;BMP_temperature;BMP_pressure;BME280_temperature;BME280_humidity;BME280_pressure;Samples;Min_cycle;Max_cycle;Signal;HPM_P1;HPM_P2
2022/06/09 00:01:22;;;;;;;28.23;9.23;;;16.20;62.20;;;;;;5093257;28;20024;-76
2022/06/09 00:04:10;;;;;;;27.50;9.55;;;16.20;62.50;;;;;;5093062;28;20016;-77
2022/06/09 00:06:44;;;;;;;20.08;9.27;;;16.20;62.40;;;;;;5083443;28;20114;-76
2022/06/09 00:09:10;;;;;;;18.95;10.02;;;16.10;62.80;;;;;;5091314;28;20020;-77
2022/06/09 00:11:41;;;;;;;27.67;10.25;;;16.10;62.90;;;;;;5093147;28;20047;-78
2022/06/09 00:14:08;;;;;;;28.40;11.25;;;16.10;63.20;;;;;;5090139;28;20024;-77
2022/06/09 00:16:35;;;;;;;22.77;10.38;;;16.00;63.30;;;;;;5090447;28;20020;-75
2022/06/09 00:19:02;;;;;;;18.90;9.90;;;16.00;63.50;;;;;;5092862;28;20024;-77
2022/06/09 00:21:28;;;;;;;21.38;10.63;;;16.00;63.70;;;;;;5092686;28;20509;-76
2022/06/09 00:23:54;;;;;;;31.05;10.32;;;15.90;63.60;;;;;;5092537;28;20071;-76
2022/06/09 00:26:19;;;;;;;26.88;11.35;;;15.90;63.80;;;;;;5092486;28;20081;-77
2022/06/09 00:28:45;;;;;;;23.55;10.75;;;15.90;63.80;;;;;;5079359;28;20024;-78
2022/06/09 00:31:11;;;;;;;30.05;10.50;;;15.90;63.90;;;;;;5092758;28;20386;-76
2022/06/09 00:33:37;;;;;;;28.40;10.65;;;15.90;64.10;;;;;;5092245;28;20107;-76
2022/06/09 00:36:03;;;;;;;32.92;11.90;;;15.90;64.20;;;;;;5092685;28;20113;-76
2022/06/09 00:38:29;;;;;;;28.25;11.88;;;15.90;64.50;;;;;;5092212;28;20051;-76
2022/06/09 00:40:59;;;;;;;30.80;10.32;;;15.80;64.70;;;;;;5092535;28;20036;-76
2022/06/09 00:43:32;;;;;;;36.08;11.35;;;15.80;64.80;;;;;;5092403;28;20106;-75
2022/06/09 00:46:10;;;;;;;28.92;12.30;;;15.90;65.10;;;;;;5090785;28;20060;-75
2022/06/09 00:48:38;;;;;;;26.35;10.93;;;15.80;65.00;;;;;;5092310;28;20024;-75
2022/06/09 00:51:22;;;;;;;29.17;11.63;;;15.80;65.10;;;;;;5051685;28;20510;-74
2022/06/09 00:53:53;;;;;;;31.10;11.55;;;15.80;65.50;;;;;;5033793;28;20033;-74
2022/06/09 00:56:19;;;;;;;30.15;12.73;;;15.80;65.80;;;;;;5051692;28;20017;-75
2022/06/09 00:58:49;;;;;;;32.03;12.18;;;15.70;65.90;;;;;;5033833;28;20040;-75
2022/06/09 01:01:17;;;;;;;30.65;13.10;;;15.70;66.40;;;;;;5051926;28;20477;-75
2022/06/09 01:03:49;;;;;;;27.30;11.80;;;15.70;66.60;;;;;;5051600;28;20033;-75
2022/06/09 01:06:20;;;;;;;29.15;12.15;;;15.70;66.70;;;;;;5051504;28;20048;-75
2022/06/09 01:09:11;;;;;;;26.55;12.02;;;15.70;66.90;;;;;;5033807;28;20500;-75
2022/06/09 01:11:38;;;;;;;42.05;14.35;;;15.70;66.90;;;;;;5051529;28;20120;-75
2022/06/09 01:14:06;;;;;;;59.57;18.30;;;15.70;67.30;;;;;;5047737;28;20095;-75
2022/06/09 01:17:02;;;;;;;58.30;18.50;;;15.70;67.30;;;;;;5051638;28;20083;-75
2022/06/09 01:20:21;;;;;;;38.08;13.25;;;15.70;67.40;;;;;;5048751;28;20147;-75
2022/06/09 01:23:15;;;;;;;36.50;15.77;;;15.70;67.10;;;;;;4992064;28;20077;-75
2022/06/09 01:25:49;;;;;;;54.38;19.13;;;15.70;67.50;;;;;;5009477;28;20132;-75
2022/06/09 01:28:20;;;;;;;64.38;20.15;;;15.80;67.60;;;;;;5031470;28;20398;-76
2022/06/09 01:30:50;;;;;;;59.85;19.10;;;15.70;67.80;;;;;;5066925;28;20090;-75
2022/06/09 01:33:42;;;;;;;65.72;18.02;;;15.80;67.90;;;;;;5051146;28;20017;-75
2022/06/09 01:36:32;;;;;;;50.10;16.38;;;15.80;67.80;;;;;;5051202;28;20033;-75
2022/06/09 01:39:01;;;;;;;51.50;15.23;;;15.90;68.40;;;;;;5051587;28;20013;-76
2022/06/09 01:41:27;;;;;;;45.70;14.88;;;15.90;68.40;;;;;;5051195;28;20500;-75
2022/06/09 01:43:55;;;;;;;49.88;15.23;;;15.90;68.30;;;;;;5051384;28;20025;-75
2022/06/09 01:46:31;;;;;;;39.97;14.20;;;16.00;68.40;;;;;;5048164;28;20112;-75
2022/06/09 01:49:05;;;;;;;44.33;15.63;;;16.00;68.40;;;;;;5042039;28;20049;-75
2022/06/09 01:51:35;;;;;;;38.05;15.82;;;16.10;68.10;;;;;;5071057;28;20041;-76
2022/06/09 01:54:09;;;;;;;39.15;15.18;;;16.20;68.10;;;;;;5060871;28;20028;-75
2022/06/09 01:56:43;;;;;;;45.08;14.88;;;16.30;68.10;;;;;;5071279;28;20100;-76
2022/06/09 01:59:47;;;;;;;46.88;15.02;;;16.40;67.50;;;;;;5062696;28;20021;-76
2022/06/09 02:02:18;;;;;;;39.35;15.57;;;16.50;66.90;;;;;;5028911;28;20025;-76
2022/06/09 02:04:51;;;;;;;36.30;16.50;;;16.50;66.80;;;;;;5029111;28;20128;-75
2022/06/09 02:07:19;;;;;;;33.22;15.88;;;16.50;66.70;;;;;;5028695;28;20120;-76
2022/06/09 02:09:45;;;;;;;34.45;15.57;;;16.60;67.30;;;;;;5028928;28;20038;-77
2022/06/09 02:12:14;;;;;;;42.13;17.13;;;16.70;64.20;;;;;;5028714;28;20518;-76
2022/06/09 02:14:44;;;;;;;56.53;18.77;;;16.70;63.70;;;;;;5028713;28;20022;-76
2022/06/09 02:17:10;;;;;;;47.10;18.05;;;16.90;64.10;;;;;;5028766;28;20993;-76
2022/06/09 02:19:38;;;;;;;42.10;16.20;;;16.90;65.10;;;;;;5028718;28;20108;-76
2022/06/09 02:22:06;;;;;;;56.40;18.17;;;17.00;64.60;;;;;;5028760;28;20022;-74
2022/06/09 02:24:32;;;;;;;45.83;17.02;;;17.10;65.10;;;;;;5028562;28;20025;-75
2022/06/09 02:26:59;;;;;;;52.33;17.38;;;17.20;64.10;;;;;;5028831;28;20033;-75
2022/06/09 02:29:25;;;;;;;59.22;19.00;;;17.20;63.70;;;;;;5028686;28;20030;-77
2022/06/09 02:31:51;;;;;;;33.90;14.50;;;17.30;63.60;;;;;;5028418;28;20549;-75
2022/06/09 02:34:16;;;;;;;30.88;14.48;;;17.30;61.60;;;;;;5028797;28;20638;-75
2022/06/09 02:36:42;;;;;;;39.60;17.17;;;17.40;61.70;;;;;;5050412;28;20386;-75
2022/06/09 02:39:08;;;;;;;45.25;16.67;;;17.50;61.40;;;;;;5071362;28;20454;-75
2022/06/09 02:41:35;;;;;;;48.17;15.85;;;17.60;61.90;;;;;;5074257;28;20025;-75
2022/06/09 02:44:00;;;;;;;46.90;15.32;;;17.60;61.70;;;;;;5074477;28;20024;-76
2022/06/09 02:46:26;;;;;;;43.65;15.48;;;17.70;60.90;;;;;;5074270;28;20028;-74
2022/06/09 02:48:53;;;;;;;38.65;15.88;;;17.80;60.20;;;;;;5074273;28;20024;-75
2022/06/09 02:51:38;;;;;;;44.35;15.90;;;17.80;60.10;;;;;;5074341;28;20130;-76
2022/06/09 02:54:10;;;;;;;41.13;14.52;;;17.90;60.00;;;;;;5074267;28;20485;-75
2022/06/09 02:56:36;;;;;;;34.65;15.07;;;18.00;60.40;;;;;;5074394;28;20508;-74
2022/06/09 02:59:03;;;;;;;40.47;15.57;;;18.10;60.40;;;;;;5074232;28;20123;-74
2022/06/09 03:01:29;;;;;;;51.40;16.63;;;18.30;59.90;;;;;;5053982;28;20013;-75
2022/06/09 03:03:55;;;;;;;60.13;17.92;;;18.40;59.90;;;;;;5072547;28;20028;-76
2022/06/09 03:06:21;;;;;;;53.75;18.63;;;18.60;59.90;;;;;;5074309;28;20040;-77
2022/06/09 03:08:47;;;;;;;53.22;16.95;;;18.80;60.00;;;;;;5056113;28;20037;-77
2022/06/09 03:11:13;;;;;;;56.10;18.55;;;19.00;59.90;;;;;;5073853;28;20031;-77
2022/06/09 03:13:40;;;;;;;47.78;17.35;;;19.20;59.50;;;;;;5074218;28;20028;-77
2022/06/09 03:16:08;;;;;;;55.08;17.88;;;19.40;59.10;;;;;;5055776;28;20033;-77
2022/06/09 03:18:34;;;;;;;67.50;18.88;;;19.50;59.10;;;;;;5073883;28;20024;-77
2022/06/09 03:21:00;;;;;;;45.35;17.20;;;19.50;59.30;;;;;;5073766;28;20078;-77
2022/06/09 03:23:26;;;;;;;42.13;16.65;;;19.50;59.10;;;;;;5073780;28;20252;-79
2022/06/09 03:25:51;;;;;;;56.90;16.48;;;19.50;58.10;;;;;;5073629;28;20462;-77
2022/06/09 03:28:18;;;;;;;41.25;16.15;;;19.50;58.40;;;;;;5073407;28;20021;-77
2022/06/09 03:30:44;;;;;;;36.55;16.70;;;19.50;57.60;;;;;;5073547;28;20358;-77
2022/06/09 03:33:10;;;;;;;33.40;15.25;;;19.60;58.10;;;;;;5073342;28;20047;-77
2022/06/09 03:35:37;;;;;;;32.85;13.95;;;19.70;57.80;;;;;;5073553;28;20028;-77
2022/06/09 03:38:03;;;;;;;;;;;19.70;57.20;;;;;;5073821;28;20017;-75
2022/06/09 03:40:30;;;;;;;28.73;14.20;;;19.70;57.20;;;;;;5073427;28;19908;-75
2022/06/09 03:42:57;;;;;;;32.42;15.45;;;19.80;56.70;;;;;;5073500;28;20296;-76
2022/06/09 03:45:23;;;;;;;;;;;19.70;56.70;;;;;;5073624;28;20032;-75
2022/06/09 03:47:49;;;;;;;31.67;14.82;;;19.80;57.00;;;;;;5080277;28;19915;-76
2022/06/09 03:50:19;;;;;;;35.55;15.55;;;19.80;56.70;;;;;;5071393;28;20041;-75
2022/06/09 03:52:45;;;;;;;24.67;13.85;;;19.90;57.10;;;;;;5072514;28;20020;-75
2022/06/09 03:55:11;;;;;;;30.92;14.93;;;20.00;56.50;;;;;;5072802;28;20028;-76
2022/06/09 03:57:37;;;;;;;31.80;14.55;;;20.00;56.10;;;;;;5054822;28;20572;-76
2022/06/09 04:00:07;;;;;;;25.30;13.80;;;20.10;55.20;;;;;;5073059;28;20107;-76
2022/06/09 04:02:33;;;;;;;28.38;13.32;;;20.10;55.30;;;;;;5063926;28;20013;-76
2022/06/09 04:04:59;;;;;;;30.95;14.75;;;20.20;56.00;;;;;;5072918;28;20120;-76
2022/06/09 04:07:25;;;;;;;36.08;13.20;;;20.30;56.00;;;;;;5072572;28;20105;-76
2022/06/09 04:09:51;;;;;;;22.00;12.50;;;20.40;55.50;;;;;;5072903;28;20486;-76
2022/06/09 04:12:17;;;;;;;35.50;13.95;;;20.50;54.50;;;;;;5072489;28;20056;-75
2022/06/09 04:14:43;;;;;;;23.17;12.80;;;20.60;54.10;;;;;;5072670;28;20013;-76
2022/06/09 04:17:12;;;;;;;24.00;13.55;;;20.80;52.70;;;;;;5072441;28;20021;-77
2022/06/09 04:19:38;;;;;;;24.23;13.38;;;20.80;52.00;;;;;;5072477;28;20091;-76
2022/06/09 04:22:05;;;;;;;22.05;12.70;;;20.70;51.70;;;;;;5072618;28;20104;-76
2022/06/09 04:24:31;;;;;;;21.60;13.18;;;20.70;51.70;;;;;;5072161;28;20028;-77
2022/06/09 04:26:56;;;;;;;25.98;14.38;;;20.70;52.20;;;;;;5072283;28;20044;-78
2022/06/09 04:29:22;;;;;;;26.67;12.63;;;20.80;52.00;;;;;;5072273;28;20032;-77
2022/06/09 04:31:48;;;;;;;27.80;14.45;;;20.90;51.70;;;;;;5054313;28;20047;-76
2022/06/09 04:34:14;;;;;;;29.98;12.80;;;21.00;51.40;;;;;;5072118;28;20100;-77
2022/06/09 04:36:41;;;;;;;34.13;13.75;;;21.10;51.40;;;;;;5071877;28;20024;-77
2022/06/09 04:39:08;;;;;;;21.33;14.13;;;21.30;51.40;;;;;;5072135;28;20020;-76
2022/06/09 04:41:34;;;;;;;36.95;13.57;;;21.40;50.90;;;;;;5072325;28;20024;-76
2022/06/09 04:44:00;;;;;;;24.27;13.48;;;21.50;50.60;;;;;;5066305;28;20490;-76
2022/06/09 04:46:29;;;;;;;29.95;14.50;;;21.50;50.70;;;;;;5066383;28;20246;-79
2022/06/09 04:48:55;;;;;;;25.45;12.88;;;21.50;50.00;;;;;;5074665;28;20028;-77
2022/06/09 04:51:22;;;;;;;23.33;13.82;;;21.60;50.10;;;;;;5073266;28;20483;-76
2022/06/09 04:53:48;;;;;;;;;;;21.70;49.80;;;;;;5072350;28;20015;-74
2022/06/09 04:56:15;;;;;;;27.70;13.77;;;21.80;50.10;;;;;;5054003;28;20387;-78
2022/06/09 04:58:42;;;;;;;21.52;13.48;;;21.80;49.40;;;;;;5072100;28;20032;-77
2022/06/09 05:01:17;;;;;;;26.20;13.73;;;21.80;49.40;;;;;;5071765;28;20029;-77
2022/06/09 05:03:44;;;;;;;19.65;12.00;;;22.00;49.10;;;;;;5071250;28;20421;-76
2022/06/09 05:06:10;;;;;;;22.80;13.40;;;22.00;47.50;;;;;;5071686;28;20082;-76
2022/06/09 05:08:36;;;;;;;22.85;11.93;;;22.10;48.10;;;;;;5053596;28;20408;-76
2022/06/09 05:11:02;;;;;;;21.02;12.52;;;22.50;47.60;;;;;;5071731;28;20024;-75
2022/06/09 05:13:28;;;;;;;27.13;11.73;;;23.30;46.40;;;;;;5070119;28;20028;-78
2022/06/09 05:15:56;;;;;;;18.60;11.13;;;24.30;44.90;;;;;;5069959;28;20096;-78
2022/06/09 05:18:25;;;;;;;22.85;11.23;;;25.60;43.00;;;;;;5070450;28;20086;-77
2022/06/09 05:20:51;;;;;;;18.55;10.40;;;26.90;41.60;;;;;;5068727;28;20077;-79
2022/06/09 05:23:19;;;;;;;19.25;10.57;;;28.00;39.20;;;;;;5071661;28;20024;-80
2022/06/09 05:25:52;;;;;;;22.92;11.55;;;29.60;38.80;;;;;;5071530;28;20122;-79
2022/06/09 05:28:19;;;;;;;16.63;9.95;;;30.20;37.20;;;;;;5053100;28;20024;-80
2022/06/09 05:30:45;;;;;;;14.88;9.88;;;31.00;36.10;;;;;;5053537;28;20462;-78
2022/06/09 05:33:12;;;;;;;15.60;9.63;;;31.70;34.50;;;;;;5071447;28;20073;-81
2022/06/09 05:35:38;;;;;;;15.52;10.00;;;32.20;33.40;;;;;;5071353;28;20028;-77
2022/06/09 05:46:17;;;;;;;16.58;10.55;;;33.80;32.00;;;;;;5071507;28;20042;-77
2022/06/09 05:48:44;;;;;;;18.07;9.77;;;33.90;31.20;;;;;;5051796;28;20021;-78
2022/06/09 05:51:11;;;;;;;20.85;11.15;;;34.20;31.50;;;;;;5059078;28;20049;-77
2022/06/09 05:53:37;;;;;;;11.68;9.95;;;34.80;30.70;;;;;;5053034;28;20420;-77
2022/06/09 05:56:06;;;;;;;21.37;10.53;;;34.80;30.00;;;;;;5071279;28;20086;-75
2022/06/09 05:58:32;;;;;;;18.17;10.05;;;;;;;;;;5052812;28;20070;-77
2022/06/09 06:00:59;;;;;;;18.45;10.90;;;;;;;;;;5071207;28;20021;-77
2022/06/09 06:03:25;;;;;;;18.98;10.07;;;35.70;30.00;;;;;;5070964;28;20037;-78
2022/06/09 06:08:35;;;;;;;15.77;8.98;;;37.20;29.60;;;;;;5065084;28;20090;-78
2022/06/09 06:11:00;;;;;;;15.53;8.80;;;38.30;28.80;;;;;;5071220;28;20024;-76
2022/06/09 06:13:26;;;;;;;15.27;8.57;;;38.50;28.00;;;;;;5070637;28;20470;-77
2022/06/09 06:15:52;;;;;;;10.52;6.40;;;38.80;28.00;;;;;;5056207;28;20020;-78
2022/06/09 06:18:18;;;;;;;19.87;8.17;;;39.50;27.10;;;;;;5074439;28;20031;-78
2022/06/09 06:20:44;;;;;;;11.97;5.07;;;39.70;27.20;;;;;;5071048;28;20261;-79
2022/06/09 06:23:09;;;;;;;13.13;5.30;;;40.30;26.30;;;;;;5075002;28;20066;-78
2022/06/09 06:25:36;;;;;;;11.65;4.55;;;41.10;26.20;;;;;;5056239;28;20301;-79
2022/06/09 06:28:02;;;;;;;8.73;3.78;;;41.90;25.70;;;;;;5074812;28;20108;-78
2022/06/09 06:30:27;;;;;;;13.65;7.60;;;42.50;24.90;;;;;;5074245;28;20120;-76
2022/06/09 06:32:55;;;;;;;9.10;3.78;;;43.10;25.30;;;;;;5056645;28;20025;-77
2022/06/09 06:35:21;;;;;;;10.50;4.63;;;43.20;24.60;;;;;;5075913;28;20020;-77
2022/06/09 06:37:46;;;;;;;12.05;5.05;;;43.40;24.50;;;;;;5070789;28;20118;-79
2022/06/09 06:40:14;;;;;;;12.57;5.00;;;43.10;24.40;;;;;;5073750;28;20033;-78
2022/06/09 06:42:40;;;;;;;8.13;4.88;;;42.60;24.60;;;;;;5073749;28;20017;-78
2022/06/09 06:45:09;;;;;;;16.92;5.38;;;42.00;24.70;;;;;;5073638;28;20103;-77
2022/06/09 06:47:35;;;;;;;11.23;4.45;;;41.90;24.90;;;;;;5073938;28;20024;-80
2022/06/09 06:50:01;;;;;;;;;;;42.40;24.60;;;;;;5061780;28;20057;-81
2022/06/09 06:52:27;;;;;;;8.27;4.20;;;43.00;25.40;;;;;;5074399;28;19904;-80
2022/06/09 06:54:53;;;;;;;6.75;4.10;;;43.90;24.00;;;;;;5074667;28;20020;-79
2022/06/09 06:57:19;;;;;;;;;;;44.00;23.80;;;;;;5075144;28;20379;-78
2022/06/09 06:59:45;;;;;;;8.82;4.15;;;44.30;24.80;;;;;;5074582;28;19911;-78
2022/06/09 07:02:11;;;;;;;;;;;44.70;23.80;;;;;;5073795;28;20032;-79
2022/06/09 07:04:37;;;;;;;6.07;4.13;;;44.70;24.20;;;;;;5070238;28;20007;-81
2022/06/09 07:07:03;;;;;;;10.18;5.97;;;44.90;23.50;;;;;;5074052;28;20139;-80
2022/06/09 07:09:29;;;;;;;7.45;3.13;;;45.20;23.60;;;;;;5074227;28;20347;-80
2022/06/09 07:11:55;;;;;;;6.82;2.92;;;44.70;23.60;;;;;;5074056;28;20024;-81
2022/06/09 07:14:20;;;;;;;;;;;43.90;23.30;;;;;;5074146;28;20482;-80
2022/06/09 07:16:46;;;;;;;8.68;3.17;;;43.80;23.90;;;;;;5074267;28;19999;-80
2022/06/09 07:19:14;;;;;;;5.15;2.38;;;44.30;23.50;;;;;;5073986;28;20024;-80
2022/06/09 07:21:39;;;;;;;7.13;2.58;;;44.30;23.00;;;;;;5073556;28;20478;-81
2022/06/09 07:24:05;;;;;;;;;;;43.80;23.00;;;;;;5089623;28;20086;-81
2022/06/09 07:26:31;;;;;;;9.10;4.25;;;43.90;23.80;;;;;;5073584;28;19919;-79
2022/06/09 07:28:56;;;;;;;11.30;3.53;;;44.40;23.20;;;;;;5073951;28;20024;-81
2022/06/09 07:31:22;;;;;;;9.15;2.97;;;45.10;23.10;;;;;;5055873;28;20492;-80
2022/06/09 07:33:48;;;;;;;9.18;3.05;;;45.70;22.70;;;;;;5073950;28;20020;-78
2022/06/09 07:36:23;;;;;;;5.40;2.72;;;45.60;22.50;;;;;;5074005;28;20033;-81
2022/06/09 07:38:49;;;;;;;7.97;2.88;;;45.70;22.70;;;;;;5061893;28;20401;-81
2022/06/09 07:41:16;;;;;;;5.45;2.40;;;46.10;23.00;;;;;;5055563;28;20035;-79
2022/06/09 07:43:41;;;;;;;12.43;3.25;;;46.60;22.70;;;;;;5055498;28;20090;-79
2022/06/09 07:46:07;;;;;;;6.57;3.03;;;46.50;22.70;;;;;;5055303;28;20032;-79
2022/06/09 07:48:33;;;;;;;16.15;3.13;;;46.10;22.70;;;;;;5055398;28;20024;-82
2022/06/09 07:51:00;;;;;;;6.80;2.58;;;45.70;22.90;;;;;;5073506;28;20486;-80
2022/06/09 07:53:26;;;;;;;4.68;2.50;;;44.90;23.10;;;;;;5055547;28;20028;-79
2022/06/09 07:55:52;;;;;;;8.07;2.25;;;44.60;22.90;;;;;;5071156;28;20047;-80
2022/06/09 07:58:19;;;;;;;9.90;3.20;;;44.90;23.00;;;;;;5073452;28;20017;-81
2022/06/09 08:00:47;;;;;;;6.63;2.55;;;45.60;23.00;;;;;;5073261;28;20021;-80
2022/06/09 08:03:21;;;;;;;5.25;2.55;;;45.90;22.80;;;;;;5073744;28;20021;-80
2022/06/09 08:05:46;;;;;;;10.00;2.40;;;45.60;22.60;;;;;;5073238;28;20068;-78
2022/06/09 08:08:12;;;;;;;4.78;1.80;;;45.20;22.60;;;;;;5044623;28;20028;-80
2022/06/09 08:10:39;;;;;;;5.70;1.83;;;45.20;22.70;;;;;;5051910;28;20470;-80
2022/06/09 08:13:05;;;;;;;5.72;1.88;;;44.90;22.80;;;;;;5073313;28;20023;-79
2022/06/09 08:15:32;;;;;;;5.22;1.90;;;44.30;23.00;;;;;;5054732;28;20124;-80
2022/06/09 08:18:00;;;;;;;7.60;2.33;;;45.00;22.90;;;;;;5073120;28;20023;-79
2022/06/09 08:20:31;;;;;;;4.78;2.28;;;45.70;22.80;;;;;;5074574;28;20063;-80
2022/06/09 08:23:08;;;;;;;7.28;2.45;;;46.40;22.90;;;;;;5084104;28;20044;-80
2022/06/09 08:25:35;;;;;;;2.42;1.25;;;47.20;22.80;;;;;;5075484;28;20024;-79
2022/06/09 08:28:03;;;;;;;3.90;1.65;;;47.40;22.30;;;;;;5072344;28;20029;-84
2022/06/09 08:30:30;;;;;;;3.85;1.63;;;46.60;22.70;;;;;;5073227;28;20062;-81
2022/06/09 08:32:57;;;;;;;8.93;2.95;;;45.80;22.60;;;;;;5072980;28;20089;-79
2022/06/09 08:35:25;;;;;;;4.47;1.83;;;45.80;23.00;;;;;;5088094;28;20028;-80
2022/06/09 08:37:51;;;;;;;7.75;2.10;;;46.20;22.90;;;;;;5072056;28;20021;-79
2022/06/09 08:40:23;;;;;;;4.32;1.63;;;46.30;22.70;;;;;;5054301;28;20089;-82
2022/06/09 08:43:07;;;;;;;7.90;2.70;;;46.20;22.60;;;;;;5072418;28;20066;-81
2022/06/09 08:45:35;;;;;;;3.30;1.60;;;45.60;22.60;;;;;;5071267;28;20032;-79
2022/06/09 08:48:03;;;;;;;5.15;2.25;;;45.30;22.70;;;;;;5054633;28;20489;-80
2022/06/09 08:50:55;;;;;;;2.72;1.98;;;45.20;23.00;;;;;;5072058;28;20051;-79
2022/06/09 08:53:34;;;;;;;7.00;1.80;;;46.00;22.90;;;;;;5046044;28;20040;-79
2022/06/09 08:56:15;;;;;;;9.57;1.90;;;46.40;23.10;;;;;;5072263;28;20086;-82
2022/06/09 08:58:46;;;;;;;4.30;1.80;;;46.50;22.80;;;;;;5071130;28;20074;-79
2022/06/09 09:01:28;;;;;;;6.15;2.08;;;45.80;22.80;;;;;;5072824;28;20386;-80
2022/06/09 09:04:14;;;;;;;6.15;2.20;;;45.20;23.20;;;;;;5071627;28;20020;-79
2022/06/09 09:07:13;;;;;;;5.07;2.38;;;44.50;23.40;;;;;;5072940;28;20314;-80
2022/06/09 09:09:39;;;;;;;3.13;2.10;;;44.40;23.90;;;;;;5061321;28;20150;-80
2022/06/09 09:12:11;;;;;;;6.78;2.28;;;44.70;23.80;;;;;;5072298;28;20017;-81
2022/06/09 09:14:57;;;;;;;4.40;1.92;;;45.30;23.60;;;;;;5072677;28;20103;-78
2022/06/09 09:17:55;;;;;;;4.80;2.22;;;44.80;23.90;;;;;;5045893;28;20044;-82
2022/06/09 09:20:56;;;;;;;7.38;1.92;;;44.60;24.10;;;;;;5071306;28;20121;-81
2022/06/09 09:23:34;;;;;;;4.47;1.92;;;45.10;23.70;;;;;;5030148;28;20091;-83
2022/06/09 09:26:27;;;;;;;6.57;2.42;;;45.40;23.60;;;;;;5051368;28;20448;-82
2022/06/09 09:29:16;;;;;;;9.43;2.03;;;45.50;23.80;;;;;;5061218;28;20020;-81
2022/06/09 09:31:49;;;;;;;9.60;2.55;;;45.60;23.50;;;;;;5071689;28;20158;-81
2022/06/09 09:34:18;;;;;;;4.15;2.47;;;45.30;23.30;;;;;;5082527;28;20443;-80
2022/06/09 09:36:50;;;;;;;7.60;2.65;;;44.80;23.70;;;;;;5053435;28;20397;-79
2022/06/09 09:39:22;;;;;;;12.30;3.22;;;43.30;24.00;;;;;;5053427;28;20025;-79
2022/06/09 09:41:54;;;;;;;5.53;1.95;;;43.20;24.20;;;;;;5086802;28;20430;-79
2022/06/09 09:44:27;;;;;;;5.90;3.45;;;43.40;24.00;;;;;;5071814;28;20370;-79
2022/06/09 09:46:55;;;;;;;6.63;2.35;;;43.40;24.00;;;;;;5071142;28;20025;-80
2022/06/09 09:49:29;;;;;;;4.18;2.80;;;42.90;24.10;;;;;;5088709;28;20367;-82
2022/06/09 09:51:58;;;;;;;5.85;2.88;;;42.80;24.30;;;;;;5074952;28;20402;-79
2022/06/09 09:54:35;;;;;;;7.72;2.08;;;43.00;24.30;;;;;;5075332;28;20359;-80
2022/06/09 09:57:16;;;;;;;6.45;2.47;;;42.50;24.50;;;;;;5075660;28;20032;-80
2022/06/09 09:59:54;;;;;;;3.63;2.20;;;42.30;24.60;;;;;;5075684;28;20016;-79
2022/06/09 10:13:53;;;;;;;5.68;2.33;;;43.00;24.50;;;;;;5076870;28;20132;-81
2022/06/09 10:16:21;;;;;;;16.23;14.73;;;43.00;24.30;;;;;;5075611;28;20111;-81
2022/06/09 10:18:52;;;;;;;4.85;2.13;;;42.80;24.30;;;;;;5075418;28;20017;-79
2022/06/09 10:21:17;;;;;;;4.85;2.20;;;42.70;24.40;;;;;;5069713;28;20024;-81
2022/06/09 10:23:56;;;;;;;5.10;2.20;;;42.90;24.60;;;;;;5073557;28;20134;-80
2022/06/09 10:26:29;;;;;;;3.72;2.47;;;43.50;24.40;;;;;;5071987;28;20442;-82
2022/06/09 10:29:08;;;;;;;4.63;2.80;;;43.60;24.10;;;;;;5074829;28;20017;-79
2022/06/09 10:32:01;;;;;;;70.35;13.25;;;42.20;24.10;;;;;;5090831;28;20119;-79
2022/06/09 10:34:54;;;;;;;6.75;2.97;;;39.60;24.50;;;;;;5057421;28;20127;-80
2022/06/09 10:37:35;;;;;;;7.88;2.88;;;37.70;26.10;;;;;;5063901;28;20111;-80
2022/06/09 10:40:24;;;;;;;6.95;2.75;;;35.80;27.00;;;;;;5074141;28;20104;-79
2022/06/09 10:42:59;;;;;;;4.93;3.03;;;34.00;28.30;;;;;;5074808;28;20024;-81
2022/06/09 10:45:48;;;;;;;6.70;3.00;;;32.80;29.00;;;;;;5074764;28;20376;-80
2022/06/09 10:57:07;;;;;;;8.45;3.60;;;29.90;32.30;;;;;;5074921;28;20405;-80
2022/06/09 11:00:13;;;;;;;4.85;2.92;;;29.60;32.60;;;;;;5074686;28;20430;-82
2022/06/09 11:02:45;;;;;;;3.58;2.97;;;29.30;32.60;;;;;;5062171;28;20034;-82
2022/06/09 11:05:14;;;;;;;5.50;2.92;;;29.00;33.30;;;;;;5056599;28;20029;-81
2022/06/09 11:08:04;;;;;;;6.03;3.20;;;28.70;33.60;;;;;;5074953;28;20039;-79
2022/06/09 11:10:47;;;;;;;6.72;2.80;;;28.50;33.80;;;;;;5074470;28;20021;-80
2022/06/09 11:13:53;;;;;;;10.43;7.65;;;28.30;34.20;;;;;;5073768;28;20089;-80
2022/06/09 11:16:22;;;;;;;;;;;28.10;34.00;;;;;;5063137;28;20033;-79
2022/06/09 11:19:24;;;;;;;5.13;3.38;;;28.00;33.80;;;;;;5074302;28;20329;-80
2022/06/09 11:22:27;;;;;;;7.63;3.25;;;27.90;35.10;;;;;;5074730;28;20164;-79
2022/06/09 11:25:19;;;;;;;8.13;3.55;;;27.90;35.30;;;;;;5058898;28;20021;-81
2022/06/09 11:27:51;;;;;;;5.43;3.67;;;27.80;35.30;;;;;;5068441;28;20389;-80
2022/06/09 11:30:57;;;;;;;5.60;3.90;;;27.70;35.70;;;;;;5060264;28;20037;-83
2022/06/09 11:33:36;;;;;;;4.18;2.90;;;27.60;36.00;;;;;;5074389;28;20017;-80
2022/06/09 11:36:19;;;;;;;10.27;4.22;;;27.60;36.20;;;;;;5074316;28;20059;-81
2022/06/09 11:39:06;;;;;;;7.50;3.97;;;27.60;37.50;;;;;;5056047;28;20021;-80
2022/06/09 11:41:49;;;;;;;8.00;3.63;;;27.60;36.80;;;;;;5069295;28;20463;-81
2022/06/09 11:44:32;;;;;;;7.35;3.38;;;27.80;36.70;;;;;;5073014;28;20031;-81
2022/06/09 11:47:02;;;;;;;6.75;3.30;;;27.80;36.50;;;;;;5053909;28;20374;-80
2022/06/09 11:49:42;;;;;;;5.63;3.78;;;27.80;37.00;;;;;;5055790;28;20123;-82
2022/06/09 11:52:18;;;;;;;16.95;5.22;;;27.90;36.60;;;;;;5074305;28;20017;-82
2022/06/09 11:54:52;;;;;;;7.67;3.40;;;28.00;37.10;;;;;;5074644;28;20121;-81
2022/06/09 11:57:25;;;;;;;5.90;3.58;;;28.00;36.30;;;;;;5078501;28;20040;-78
2022/06/09 11:59:55;;;;;;;6.47;4.18;;;27.90;37.40;;;;;;5084718;28;20027;-82
2022/06/09 12:02:42;;;;;;;5.60;3.55;;;27.90;37.00;;;;;;5070593;28;20040;-80
2022/06/09 12:05:29;;;;;;;14.73;5.35;;;27.90;36.50;;;;;;5090777;28;20473;-82
2022/06/09 12:07:58;;;;;;;13.30;4.88;;;27.90;37.40;;;;;;5063505;28;20070;-81
2022/06/09 12:10:42;;;;;;;5.15;3.70;;;28.00;37.70;;;;;;5090148;28;20402;-83
2022/06/09 12:13:26;;;;;;;5.68;3.50;;;28.00;36.90;;;;;;5073757;28;20016;-81
2022/06/09 12:16:05;;;;;;;9.40;3.38;;;27.90;36.30;;;;;;5074477;28;20086;-82
2022/06/09 12:18:40;;;;;;;7.20;2.97;;;27.80;37.00;;;;;;5085447;28;20017;-82
2022/06/09 12:21:09;;;;;;;6.10;3.53;;;27.60;36.70;;;;;;5075433;28;20039;-83
2022/06/09 12:23:40;;;;;;;6.10;3.25;;;27.60;37.10;;;;;;5079945;28;20084;-82
2022/06/09 12:26:09;;;;;;;5.35;2.90;;;27.70;37.80;;;;;;5061204;28;20139;-81
2022/06/09 12:28:50;;;;;;;9.95;3.55;;;27.70;37.40;;;;;;5077262;28;20437;-79
2022/06/09 12:31:24;;;;;;;5.47;3.95;;;27.70;36.80;;;;;;5087970;28;20503;-80
2022/06/09 12:34:08;;;;;;;6.55;3.45;;;27.60;37.20;;;;;;5088387;28;20136;-81
2022/06/09 12:36:55;;;;;;;6.85;3.75;;;27.50;37.30;;;;;;5072764;28;20063;-81
2022/06/09 12:39:23;;;;;;;5.60;3.65;;;27.60;38.10;;;;;;5073628;28;20054;-79
2022/06/09 12:41:59;;;;;;;7.75;5.70;;;27.70;37.70;;;;;;5072713;28;20470;-79
2022/06/09 12:44:27;;;;;;;7.30;3.65;;;27.80;38.30;;;;;;5072482;28;20385;-80
2022/06/09 12:46:56;;;;;;;8.88;3.97;;;27.80;37.90;;;;;;5072323;28;20025;-79
2022/06/09 12:49:36;;;;;;;8.40;4.32;;;27.90;37.70;;;;;;5054440;28;20401;-80
2022/06/09 12:52:05;;;;;;;4.38;3.90;;;28.00;38.00;;;;;;5052144;28;20024;-79
2022/06/09 12:54:38;;;;;;;8.35;4.10;;;28.00;37.60;;;;;;5072898;28;20025;-84
2022/06/09 12:57:07;;;;;;;5.28;3.90;;;28.10;37.60;;;;;;5055294;28;20490;-80
2022/06/09 12:59:38;;;;;;;8.52;4.35;;;28.10;37.30;;;;;;5072241;28;20039;-79
2022/06/09 13:02:31;;;;;;;10.98;4.68;;;28.00;37.40;;;;;;5072321;28;20035;-81
2022/06/09 13:05:16;;;;;;;6.63;4.18;;;28.00;37.80;;;;;;5072644;28;20043;-80
2022/06/09 13:07:53;;;;;;;7.07;4.35;;;28.00;37.40;;;;;;5064891;28;20021;-81
2022/06/09 13:10:32;;;;;;;7.60;3.83;;;28.10;38.10;;;;;;5073183;28;20051;-81
2022/06/09 13:13:22;;;;;;;6.47;4.05;;;28.20;37.70;;;;;;5074601;28;20047;-80
2022/06/09 13:16:07;;;;;;;16.73;4.97;;;28.30;37.70;;;;;;5088933;28;20102;-81
2022/06/09 13:18:52;;;;;;;9.75;4.38;;;28.30;37.80;;;;;;5056184;28;20085;-81
2022/06/09 13:21:31;;;;;;;8.38;4.03;;;28.30;38.30;;;;;;5072387;28;20490;-79
2022/06/09 13:23:59;;;;;;;8.55;4.70;;;28.40;37.80;;;;;;5090299;28;20032;-81
2022/06/09 13:26:32;;;;;;;5.88;4.30;;;28.30;38.20;;;;;;5075320;28;20029;-81
2022/06/09 13:29:01;;;;;;;10.23;4.90;;;28.40;38.70;;;;;;5072414;28;20055;-80
2022/06/09 13:31:37;;;;;;;4.63;3.78;;;28.40;39.30;;;;;;5054400;28;20474;-81
2022/06/09 13:34:09;;;;;;;4.93;3.67;;;28.40;38.50;;;;;;5053546;28;20104;-79
2022/06/09 13:36:40;;;;;;;7.30;4.93;;;28.50;38.30;;;;;;5052264;28;20040;-80